Time;durP1;ratioP1;P1;durP2;ratioP2;P2;SDS_P1;SDS_P2;PMS_P1;PMS_P2;Temp;Humidity;BMP_temperature;BMP_pressure;BME280_temperature;BME280_humidity;BME280_pressure;Samples;Min_cycle;Max_cycle;Signal;HPM_P1;HPM_P2
2023/08/14 00:01:21;;;;;;;5.18;3.72;;;;;;;19.42;100.00;99371.63;5026250;28;20512;-48
2023/08/14 00:03:47;;;;;;;6.93;3.72;;;;;;;19.20;100.00;99339.09;5008502;28;20060;-47
2023/08/14 00:06:13;;;;;;;4.97;3.55;;;;;;;19.24;100.00;99343.19;5026077;28;20033;-48
2023/08/14 00:08:39;;;;;;;7.93;4.25;;;;;;;19.39;100.00;99361.31;5026507;28;20496;-50
2023/08/14 00:11:05;;;;;;;4.60;4.00;;;;;;;19.40;100.00;99364.78;5020398;28;20045;-51
2023/08/14 00:13:48;;;;;;;6.28;4.07;;;;;;;19.37;100.00;99363.22;5009873;28;20056;-45
2023/08/14 00:16:14;;;;;;;6.25;3.75;;;;;;;19.38;100.00;99361.41;5028826;28;20045;-49
2023/08/14 00:18:40;;;;;;;9.32;4.22;;;;;;;19.38;100.00;99361.41;5024639;28;20052;-48
2023/08/14 00:21:06;;;;;;;5.97;4.05;;;;;;;19.38;100.00;99367.53;5024507;28;21195;-46
2023/08/14 00:23:32;;;;;;;9.60;3.97;;;;;;;19.36;100.00;99366.81;5020764;28;20701;-48
2023/08/14 00:25:58;;;;;;;6.95;3.78;;;;;;;19.33;100.00;99359.13;5026640;28;20048;-50
2023/08/14 00:28:24;;;;;;;4.22;3.47;;;;;;;19.32;100.00;99362.72;5027325;28;20037;-48
2023/08/14 00:30:50;;;;;;;3.75;3.38;;;;;;;19.35;100.00;99359.88;5023169;28;20100;-46
2023/08/14 00:33:16;;;;;;;4.47;3.80;;;;;;;19.35;100.00;99351.97;5009900;28;20067;-50
2023/08/14 00:35:42;;;;;;;4.93;3.78;;;;;;;19.32;100.00;99341.63;5009058;28;20045;-47
2023/08/14 00:38:08;;;;;;;7.35;3.22;;;;;;;19.33;100.00;99343.31;5014274;28;20528;-46
2023/08/14 00:40:34;;;;;;;3.45;3.15;;;;;;;19.21;100.00;99322.34;5031989;28;20038;-50
2023/08/14 00:43:00;;;;;;;6.13;3.55;;;;;;;19.32;100.00;99343.41;5006846;28;20156;-47
2023/08/14 00:45:26;;;;;;;4.50;3.67;;;;;;;19.31;100.00;99354.94;5027140;28;20053;-45
2023/08/14 00:47:52;;;;;;;4.88;3.17;;;;;;;19.28;100.00;99337.56;5027969;28;20532;-48
2023/08/14 00:50:18;;;;;;;7.03;3.72;;;;;;;19.29;100.00;99333.13;5003651;28;20159;-50
2023/08/14 00:52:46;;;;;;;5.68;3.35;;;;;;;19.30;100.00;99333.00;5026026;28;20040;-48
2023/08/14 00:55:19;;;;;;;5.53;2.90;;;;;;;19.30;100.00;99317.19;5025426;28;20128;-51
2023/08/14 00:57:46;;;;;;;4.85;3.60;;;;;;;19.27;100.00;99320.06;5014098;28;20045;-51
2023/08/14 01:00:13;;;;;;;4.05;3.03;;;;;;;19.31;100.00;99310.94;5010196;28;20045;-52
2023/08/14 01:02:41;;;;;;;3.88;2.92;;;;;;;19.28;100.00;99313.81;5027310;28;20476;-48
2023/08/14 01:05:07;;;;;;;4.70;3.05;;;;;;;19.29;100.00;99312.03;5026679;28;20513;-50
2023/08/14 01:07:34;;;;;;;3.40;3.10;;;;;;;19.30;100.00;99319.84;5026103;28;20091;-49
2023/08/14 01:10:02;;;;;;;4.35;2.92;;;;;;;19.32;100.00;99324.97;5024794;28;20460;-49
2023/08/14 01:12:46;;;;;;;4.50;3.17;;;;;;;19.29;100.00;99319.94;5027955;28;20064;-50
2023/08/14 01:15:21;;;;;;;3.53;2.90;;;;;;;19.04;100.00;99279.66;5010342;28;20119;-50
2023/08/14 01:17:53;;;;;;;3.55;3.03;;;;;;;19.33;100.00;99324.84;5010289;28;20132;-48
2023/08/14 01:20:20;;;;;;;3.35;2.67;;;;;;;19.15;100.00;99297.28;5009049;28;20041;-46
2023/08/14 01:23:08;;;;;;;9.15;3.35;;;;;;;19.35;100.00;99330.03;5009817;28;20068;-47
2023/08/14 01:25:37;;;;;;;7.07;3.10;;;;;;;19.26;100.00;99315.72;5018176;28;20049;-50
2023/08/14 01:28:04;;;;;;;3.38;3.03;;;;;;;19.41;100.00;99340.94;4993549;28;20076;-49
2023/08/14 01:30:31;;;;;;;5.60;3.38;;;;;;;19.40;100.00;99338.44;5024442;28;20049;-47
2023/08/14 01:32:57;;;;;;;4.80;3.17;;;;;;;19.35;100.00;99345.84;5026284;28;20068;-48
2023/08/14 01:35:26;;;;;;;4.25;3.13;;;;;;;19.34;100.00;99339.72;5025234;28;20041;-46
2023/08/14 01:38:12;;;;;;;4.40;3.60;;;;;;;19.37;100.00;99349.19;5025532;28;20034;-48
2023/08/14 01:40:45;;;;;;;3.38;3.08;;;;;;;19.33;100.00;99348.59;5025210;28;20120;-48
2023/08/14 01:43:18;;;;;;;3.40;3.00;;;;;;;19.33;100.00;99340.69;5025048;28;20482;-44
2023/08/14 01:45:44;;;;;;;3.75;2.60;;;;;;;19.33;100.00;99343.31;5010100;28;20153;-47
2023/08/14 01:48:10;;;;;;;3.70;3.30;;;;;;;19.32;100.00;99339.00;5025903;28;20044;-46
2023/08/14 01:50:38;;;;;;;8.10;3.10;;;;;;;19.17;100.00;99315.59;5024312;28;20046;-45
2023/08/14 01:53:06;;;;;;;3.15;2.78;;;;;;;19.33;100.00;99345.94;5007784;28;20044;-45
2023/08/14 01:55:32;;;;;;;5.93;2.92;;;;;;;19.03;100.00;99296.41;5019615;28;20485;-45
2023/08/14 01:57:58;;;;;;;4.57;2.35;;;;;;;19.32;100.00;99343.41;5008071;28;20053;-52
2023/08/14 02:00:26;;;;;;;4.57;2.78;;;;;;;19.35;100.00;99340.56;5025068;28;20044;-48
2023/08/14 02:02:54;;;;;;;3.58;2.80;;;;;;;19.26;100.00;99323.63;4990827;28;20056;-51
2023/08/14 02:05:20;;;;;;;3.55;1.92;;;;;;;19.38;100.00;99342.97;5027348;28;20053;-52
2023/08/14 02:07:45;;;;;;;3.72;2.10;;;;;;;19.35;100.00;99336.16;5025676;28;20072;-48
2023/08/14 02:10:11;;;;;;;2.00;1.50;;;;;;;19.34;100.00;99339.72;5022254;28;20584;-52
2023/08/14 02:12:37;;;;;;;2.38;1.67;;;;;;;19.35;100.00;99335.31;5024842;28;20041;-51
2023/08/14 02:15:09;;;;;;;11.18;7.10;;;;;;;19.35;100.00;99338.78;5022012;28;20128;-52
2023/08/14 02:17:35;;;;;;;2.85;1.70;;;;;;;19.31;100.00;99347.03;5009077;28;20072;-47
2023/08/14 02:20:21;;;;;;;3.15;2.10;;;;;;;19.21;100.00;99341.59;5018779;28;20045;-49
2023/08/14 02:22:47;;;;;;;2.75;2.00;;;;;;;19.20;100.00;99349.63;5026338;28;20045;-50
2023/08/14 02:25:13;;;;;;;2.20;1.83;;;;;;;19.10;100.00;99338.94;5025216;28;20056;-51
2023/08/14 02:27:39;;;;;;;3.28;2.10;;;;;;;19.08;100.00;99353.19;5024000;28;20045;-48
2023/08/14 02:30:05;;;;;;;2.00;1.80;;;;;;;19.05;100.00;99351.63;5008698;28;20037;-52
2023/08/14 02:32:34;;;;;;;3.50;1.88;;;;;;;18.91;100.00;99335.97;5025179;28;20137;-48
2023/08/14 02:35:03;;;;;;;3.92;2.75;;;;;;;18.99;100.00;99349.44;5023850;28;20046;-46
2023/08/14 02:37:32;;;;;;;3.92;2.10;;;;;;;18.99;100.00;99354.72;5030327;28;20075;-45
2023/08/14 02:39:58;;;;;;;3.30;2.33;;;;;;;18.97;100.00;99348.72;5010265;28;20820;-46
2023/08/14 02:42:25;;;;;;;6.25;2.20;;;;;;;18.98;100.00;99348.59;5011965;28;20041;-44
2023/08/14 02:44:51;;;;;;;2.38;2.17;;;;;;;18.81;100.00;99322.66;5029458;28;20041;-46
2023/08/14 02:47:17;;;;;;;3.10;2.47;;;;;;;18.94;100.00;99357.69;5010790;28;20064;-45
2023/08/14 02:49:43;;;;;;;2.35;2.10;;;;;;;18.93;100.00;99355.16;5030133;28;20041;-49
2023/08/14 02:52:11;;;;;;;3.67;2.20;;;;;;;18.97;100.00;99352.19;5022762;28;20176;-47
2023/08/14 02:54:37;;;;;;;2.53;2.00;;;;;;;18.96;100.00;99353.13;5029094;28;20049;-51
2023/08/14 02:57:03;;;;;;;4.63;1.98;;;;;;;19.02;100.00;99351.84;5024714;28;20076;-49
2023/08/14 02:59:29;;;;;;;2.30;1.92;;;;;;;18.86;100.00;99330.22;5027732;28;20033;-47
2023/08/14 03:01:55;;;;;;;2.40;1.75;;;;;;;18.97;100.00;99354.81;5034923;28;20072;-47
2023/08/14 03:04:21;;;;;;;2.88;1.90;;;;;;;18.96;100.00;99352.28;5029911;28;20107;-48
2023/08/14 03:06:47;;;;;;;2.45;1.48;;;;;;;18.97;100.00;99349.56;5028395;28;20107;-47
2023/08/14 03:09:13;;;;;;;2.33;1.90;;;;;;;18.87;100.00;99339.81;5011010;28;20080;-48
2023/08/14 03:11:39;;;;;;;2.58;2.00;;;;;;;19.04;100.00;99347.31;5025968;28;20045;-47
2023/08/14 03:14:05;;;;;;;2.35;1.90;;;;;;;19.00;100.00;99336.13;5038430;28;20048;-46
2023/08/14 03:16:30;;;;;;;2.63;1.90;;;;;;;19.04;100.00;99339.41;5022463;28;20049;-47
2023/08/14 03:18:56;;;;;;;2.50;1.80;;;;;;;19.04;100.00;99339.41;5011497;28;20042;-45
2023/08/14 03:21:22;;;;;;;3.95;1.98;;;;;;;19.05;100.00;99352.44;4992065;28;20438;-45
2023/08/14 03:23:49;;;;;;;2.25;1.65;;;;;;;18.99;100.00;99329.22;5028048;28;20053;-50
2023/08/14 03:26:15;;;;;;;5.13;2.00;;;;;;;18.88;100.00;99323.91;5026634;28;20037;-45
2023/08/14 03:28:41;;;;;;;4.47;2.08;;;;;;;19.07;100.00;99347.06;5028040;28;20042;-46
2023/08/14 03:31:08;;;;;;;5.00;2.17;;;;;;;19.04;100.00;99347.31;5023439;28;20095;-45
2023/08/14 03:33:34;;;;;;;2.58;2.05;;;;;;;19.07;100.00;99347.06;5015697;28;20037;-47
2023/08/14 03:36:00;;;;;;;3.75;1.80;;;;;;;19.03;100.00;99345.63;5029685;28;20136;-48
2023/08/14 03:38:26;;;;;;;3.00;2.17;;;;;;;18.87;100.00;99318.72;5011853;28;20048;-47
2023/08/14 03:40:52;;;;;;;3.35;2.58;;;;;;;18.93;100.00;99321.75;5028851;28;20036;-50
2023/08/14 03:43:18;;;;;;;2.70;2.08;;;;;;;19.07;100.00;99351.50;5029607;28;20782;-46
2023/08/14 03:45:45;;;;;;;3.08;2.47;;;;;;;18.88;100.00;99317.78;5022772;28;20049;-48
2023/08/14 03:48:12;;;;;;;4.45;2.50;;;;;;;19.05;100.00;99349.81;5010879;28;20037;-59
2023/08/14 03:50:38;;;;;;;3.17;2.35;;;;;;;19.05;100.00;99352.44;5008971;28;20041;-45
2023/08/14 03:53:04;;;;;;;3.47;2.40;;;;;;;19.05;100.00;99343.72;5010113;28;20421;-47
2023/08/14 03:55:30;;;;;;;3.25;2.13;;;;;;;18.92;100.00;99330.59;5029246;28;20060;-47
2023/08/14 03:57:57;;;;;;;3.38;2.60;;;;;;;19.05;100.00;99352.44;5025424;28;20045;-48
2023/08/14 04:00:23;;;;;;;5.47;3.10;;;;;;;18.88;100.00;99321.25;5006493;28;20215;-47
2023/08/14 04:02:49;;;;;;;4.82;2.90;;;;;;;18.92;100.00;99337.66;5021351;28;20041;-47
2023/08/14 04:05:15;;;;;;;4.43;3.03;;;;;;;19.05;100.00;99349.81;5008899;28;20056;-53
2023/08/14 04:07:42;;;;;;;5.13;2.80;;;;;;;19.07;100.00;99354.13;5027581;28;20086;-46
2023/08/14 04:10:08;;;;;;;3.80;2.75;;;;;;;19.07;100.00;99343.59;4985350;28;20176;-46
2023/08/14 04:12:34;;;;;;;5.13;2.35;;;;;;;19.12;100.00;99344.94;5026235;28;20033;-48
2023/08/14 04:15:16;;;;;;;6.05;2.97;;;;;;;19.14;100.00;99352.72;5028356;28;20038;-49
2023/08/14 04:17:43;;;;;;;4.70;3.45;;;;;;;19.16;100.00;99353.44;5025351;28;20045;-50
2023/08/14 04:20:10;;;;;;;5.05;3.22;;;;;;;19.23;100.00;99352.03;5027905;28;20106;-48
2023/08/14 04:22:36;;;;;;;5.13;3.35;;;;;;;19.14;100.00;99332.50;5023379;28;20131;-46
2023/08/14 04:25:03;;;;;;;8.57;3.67;;;;;;;19.28;100.00;99348.09;5027281;28;20045;-51
2023/08/14 04:27:32;;;;;;;6.18;4.05;;;;;;;19.28;100.00;99355.16;5010898;28;20542;-46
2023/08/14 04:29:58;;;;;;;11.63;4.15;;;;;;;19.18;100.00;99352.38;5027058;28;20102;-46
2023/08/14 04:32:24;;;;;;;9.10;4.68;;;;;;;18.86;100.00;99357.41;4993699;28;20041;-49
2023/08/14 04:34:50;;;;;;;10.00;3.85;;;;;;;18.62;100.00;99353.94;5027299;28;20037;-49
2023/08/14 04:37:16;;;;;;;8.85;4.97;;;;;;;18.46;100.00;99348.06;5041693;28;20049;-49
2023/08/14 04:39:43;;;;;;;14.38;5.53;;;;;;;18.33;100.00;99326.19;5025236;28;20049;-49
2023/08/14 04:42:09;;;;;;;9.23;5.07;;;;;;;18.16;100.00;99298.47;5023868;28;21596;-51
2023/08/14 04:44:35;;;;;;;14.55;6.00;;;;;;;18.46;100.00;99354.16;5032342;28;20049;-52
2023/08/14 04:47:01;;;;;;;9.50;4.70;;;;;;;18.47;100.00;99347.13;5033485;28;20038;-50
2023/08/14 04:49:29;;;;;;;11.77;5.60;;;;;;;18.43;100.00;99351.75;5023930;28;20049;-52
2023/08/14 04:51:56;;;;;;;9.27;5.07;;;;;;;18.26;100.00;99328.44;5035314;28;20638;-48
2023/08/14 04:54:22;;;;;;;10.48;5.28;;;;;;;18.13;100.00;99310.03;5026993;28;20045;-49
2023/08/14 04:56:48;;;;;;;14.38;6.05;;;;;;;18.39;100.00;99347.66;5007378;28;20057;-50
2023/08/14 04:59:16;;;;;;;13.10;6.40;;;;;;;18.38;100.00;99351.22;5008862;28;20131;-49
2023/08/14 05:01:42;;;;;;;11.57;6.28;;;;;;;18.36;100.00;99347.03;5026050;28;20033;-47
2023/08/14 05:04:09;;;;;;;12.00;6.38;;;;;;;18.35;100.00;99351.47;5005891;28;20475;-49
2023/08/14 05:06:35;;;;;;;10.85;5.30;;;;;;;18.38;100.00;99337.22;5009941;28;20076;-49
2023/08/14 05:09:02;;;;;;;10.52;6.43;;;;;;;18.44;100.00;99353.41;5024689;28;20041;-52
2023/08/14 05:11:30;;;;;;;11.80;6.40;;;;;;;18.47;100.00;99355.00;5026117;28;20099;-44
2023/08/14 05:13:56;;;;;;;9.88;5.88;;;;;;;18.47;100.00;99345.31;5025242;28;20045;-47
2023/08/14 05:16:23;;;;;;;8.52;5.38;;;;;;;18.55;100.00;99355.31;5007752;28;20117;-48
2023/08/14 05:18:49;;;;;;;10.55;5.68;;;;;;;18.41;100.00;99331.75;5025302;28;20049;-45
2023/08/14 05:21:16;;;;;;;9.40;5.60;;;;;;;18.55;100.00;99350.06;5026376;28;20481;-48
2023/08/14 05:23:42;;;;;;;13.00;6.05;;;;;;;18.60;100.00;99356.66;5026949;28;20048;-47
2023/08/14 05:26:08;;;;;;;9.57;6.20;;;;;;;18.62;100.00;99353.94;5025388;28;20037;-47
2023/08/14 05:28:34;;;;;;;10.07;5.78;;;;;;;18.67;100.00;99362.34;5023742;28;20095;-51
2023/08/14 05:31:00;;;;;;;13.90;6.85;;;;;;;18.41;100.00;99332.59;5024397;28;20038;-46
2023/08/14 05:33:26;;;;;;;8.68;5.65;;;;;;;18.50;100.00;99358.25;5026800;28;20045;-50
2023/08/14 05:35:52;;;;;;;13.85;6.80;;;;;;;18.41;100.00;99368.59;5010609;28;20048;-47
2023/08/14 05:38:18;;;;;;;12.82;7.05;;;;;;;18.34;100.00;99370.81;5027076;28;20179;-53
2023/08/14 05:40:44;;;;;;;8.18;4.82;;;;;;;18.29;100.00;99366.84;5026753;28;20052;-49
2023/08/14 05:43:12;;;;;;;13.57;7.15;;;;;;;18.24;100.00;99367.16;5021295;28;20041;-50
2023/08/14 05:45:41;;;;;;;13.27;7.15;;;;;;;18.25;100.00;99365.38;5023622;28;20195;-46
2023/08/14 05:48:07;;;;;;;9.02;6.05;;;;;;;18.25;100.00;99360.13;5018912;28;20433;-46
2023/08/14 05:50:34;;;;;;;10.13;5.72;;;;;;;18.23;100.00;99367.25;5010189;28;20038;-48
2023/08/14 05:53:04;;;;;;;10.30;6.55;;;;;;;18.26;100.00;99362.66;5010098;28;20535;-47
2023/08/14 05:55:32;;;;;;;12.73;6.50;;;;;;;18.26;100.00;99367.91;5019979;28;20588;-49
2023/08/14 05:57:59;;;;;;;10.05;6.78;;;;;;;18.28;100.00;99365.16;5023874;28;20072;-45
2023/08/14 06:00:25;;;;;;;11.20;6.70;;;;;;;18.04;100.00;99344.06;5020540;28;20075;-47
2023/08/14 06:02:52;;;;;;;9.75;6.22;;;;;;;18.37;100.00;99380.31;5025956;28;20045;-49
2023/08/14 06:05:18;;;;;;;8.80;5.80;;;;;;;18.34;100.00;99377.88;5018276;28;20061;-49
2023/08/14 06:07:47;;;;;;;11.10;7.45;;;;;;;18.50;100.00;99384.59;5024449;28;20592;-47
2023/08/14 06:10:13;;;;;;;10.43;6.70;;;;;;;18.55;100.00;99355.31;5021105;28;20048;-48
2023/08/14 06:12:38;;;;;;;9.70;6.85;;;;;;;18.58;100.00;99363.81;5030115;28;20049;-46
2023/08/14 06:15:05;;;;;;;11.18;6.15;;;;;;;18.73;100.00;99395.28;5025331;28;20073;-46
2023/08/14 06:17:33;;;;;;;11.80;6.60;;;;;;;18.76;100.00;99395.91;5011001;28;20477;-45
2023/08/14 06:19:59;;;;;;;8.10;4.93;;;;;;;18.80;100.00;99400.00;5021108;28;20079;-46
2023/08/14 06:22:25;;;;;;;9.43;6.13;;;;;;;18.91;100.00;99397.41;5030114;28;20124;-48
2023/08/14 06:24:51;;;;;;;7.13;5.53;;;;;;;19.08;100.00;99408.50;5029575;28;20041;-49
2023/08/14 06:27:17;;;;;;;6.30;4.32;;;;;;;19.18;100.00;99391.06;5029804;28;20045;-48
2023/08/14 06:29:43;;;;;;;6.55;5.13;;;;;;;19.20;100.00;99376.00;5023775;28;20034;-49
2023/08/14 06:32:09;;;;;;;9.23;5.65;;;;;;;19.53;100.00;99386.66;5030799;28;20055;-50
2023/08/14 06:34:36;;;;;;;8.00;5.25;;;;;;;19.97;100.00;99409.66;5029708;28;20194;-48
2023/08/14 06:37:02;;;;;;;5.93;4.32;;;;;;;20.63;100.00;99406.16;5028880;28;20099;-46
2023/08/14 06:39:28;;;;;;;8.15;4.85;;;;;;;21.26;100.00;99401.06;5021448;28;20052;-49
2023/08/14 06:41:54;;;;;;;6.85;4.75;;;;;;;21.16;100.00;99385.13;5029463;28;20041;-51
2023/08/14 06:44:20;;;;;;;5.75;4.75;;;;;;;21.03;100.00;99380.00;5022576;28;20046;-49
2023/08/14 06:46:47;;;;;;;6.60;5.13;;;;;;;21.33;100.00;99402.25;5004218;28;20048;-46
2023/08/14 06:49:12;;;;;;;6.80;4.70;;;;;;;21.57;100.00;99405.47;5012117;28;20033;-49
2023/08/14 06:51:38;;;;;;;11.48;5.18;;;;;;;21.55;100.00;99392.41;5029135;28;20052;-49
2023/08/14 06:54:05;;;;;;;6.68;4.85;;;;;;;21.70;100.00;99410.59;5022956;28;20164;-47
2023/08/14 06:56:31;;;;;;;5.70;5.10;;;;;;;21.54;100.00;99421.63;5011155;28;20099;-47
2023/08/14 06:58:57;;;;;;;7.70;5.05;;;;;;;21.41;100.00;99419.16;5026416;28;20046;-50
2023/08/14 07:01:24;;;;;;;10.02;4.95;;;;;;;20.79;100.00;99379.34;5027946;28;20559;-51
2023/08/14 07:03:50;;;;;;;7.43;5.45;;;;;;;20.73;100.00;99428.22;5029285;28;20057;-49
2023/08/14 07:06:16;;;;;;;9.93;5.82;;;;;;;20.46;100.00;99427.81;5023587;28;20052;-48
2023/08/14 07:08:42;;;;;;;9.05;6.22;;;;;;;20.14;100.00;99432.94;5027561;28;20044;-47
2023/08/14 07:11:08;;;;;;;8.88;6.22;;;;;;;20.00;100.00;99434.94;5029882;28;20041;-49
2023/08/14 07:13:34;;;;;;;6.45;5.25;;;;;;;19.97;100.00;99437.84;5027137;28;20512;-48
2023/08/14 07:16:00;;;;;;;8.75;6.18;;;;;;;19.83;100.00;99447.66;5027576;28;20053;-48
2023/08/14 07:18:26;;;;;;;7.65;5.03;;;;;;;19.70;100.00;99438.13;5018173;28;20037;-51
2023/08/14 07:20:53;;;;;;;7.72;5.43;;;;;;;19.62;100.00;99454.56;5026696;28;20501;-52
2023/08/14 07:23:20;;;;;;;9.75;5.32;;;;;;;19.52;100.00;99452.72;5025020;28;20075;-47
2023/08/14 07:25:46;;;;;;;7.30;5.35;;;;;;;19.70;100.00;99456.59;4995519;28;20049;-47
2023/08/14 07:28:12;;;;;;;8.73;5.40;;;;;;;19.77;100.00;99463.94;5033145;28;20049;-48
2023/08/14 07:30:39;;;;;;;8.13;5.35;;;;;;;19.83;100.00;99455.56;5035196;28;20038;-52
2023/08/14 07:33:07;;;;;;;6.72;5.47;;;;;;;20.05;100.00;99441.53;5011901;28;20045;-53
2023/08/14 07:35:33;;;;;;;6.72;4.93;;;;;;;20.43;100.00;99453.59;5011331;28;20083;-51
2023/08/14 07:38:00;;;;;;;4.50;3.40;;;;;;;20.93;100.00;99460.16;5029470;28;20476;-53
2023/08/14 07:40:26;;;;;;;6.47;5.00;;;;;;;20.95;100.00;99439.72;5000710;28;20421;-50
2023/08/14 07:42:52;;;;;;;7.85;5.03;;;;;;;21.04;100.00;99442.44;5031172;28;20045;-49
2023/08/14 07:45:17;;;;;;;5.22;4.15;;;;;;;21.21;100.00;99472.00;5011008;28;20814;-48
2023/08/14 07:47:43;;;;;;;10.02;5.22;;;;;;;21.17;100.00;99467.94;5028479;28;20045;-48
2023/08/14 07:50:10;;;;;;;6.97;3.65;;;;;;;21.50;100.00;99468.66;5028068;28;20458;-48
2023/08/14 07:52:36;;;;;;;5.45;4.10;;;;;;;21.54;100.00;99471.88;5030689;28;20618;-50
2023/08/14 07:55:03;;;;;;;7.10;4.70;;;;;;;21.56;100.00;99477.91;5006087;28;20033;-52
2023/08/14 07:57:31;;;;;;;5.95;4.43;;;;;;;21.75;100.00;99479.84;5020598;28;20045;-50
2023/08/14 07:59:57;;;;;;;7.07;4.60;;;;;;;21.95;100.00;99487.81;5020029;28;20425;-53
2023/08/14 08:02:23;;;;;;;6.85;4.10;;;;;;;21.74;100.00;99479.00;5027879;28;20132;-48
2023/08/14 08:04:49;;;;;;;5.88;3.90;;;;;;;21.59;100.00;99467.06;4993913;28;20053;-50
2023/08/14 08:07:15;;;;;;;6.00;4.10;;;;;;;21.39;100.00;99468.72;5026647;28;20069;-50
2023/08/14 08:09:41;;;;;;;6.05;4.25;;;;;;;21.39;100.00;99471.34;5024123;28;20128;-50
2023/08/14 08:12:07;;;;;;;6.72;4.57;;;;;;;21.50;100.00;99499.56;5032538;28;20045;-52
2023/08/14 08:14:37;;;;;;;9.23;4.85;;;;;;;21.53;100.00;99508.09;5025815;28;20467;-52
2023/08/14 08:17:03;;;;;;;4.38;3.70;;;;;;;21.51;99.88;99495.97;5008940;28;20041;-48
2023/08/14 08:19:29;;;;;;;6.47;4.60;;;;;;;21.58;100.00;99501.56;5009753;28;20054;-48
2023/08/14 08:21:55;;;;;;;5.78;4.05;;;;;;;21.63;100.00;99502.88;5025477;28;20033;-51
2023/08/14 08:24:21;;;;;;;6.20;4.22;;;;;;;21.68;100.00;99502.50;5003051;28;20132;-47
2023/08/14 08:26:48;;;;;;;7.03;4.13;;;;;;;21.86;100.00;99509.75;5023450;28;20128;-50
2023/08/14 08:29:14;;;;;;;4.28;3.88;;;;;;;21.79;100.00;99510.38;5027097;28;20500;-49
2023/08/14 08:31:41;;;;;;;5.03;3.40;;;;;;;21.48;98.32;99507.63;5013262;28;20037;-46
2023/08/14 08:34:06;;;;;;;5.85;4.38;;;;;;;21.34;100.00;99520.31;5023712;28;20073;-52
2023/08/14 08:36:33;;;;;;;6.22;4.57;;;;;;;21.17;100.00;99512.88;5025294;28;20079;-47
2023/08/14 08:38:59;;;;;;;6.53;4.80;;;;;;;21.13;100.00;99510.47;4993854;28;20539;-51
2023/08/14 08:41:32;;;;;;;8.35;4.95;;;;;;;21.11;100.00;99503.63;5010270;28;20029;-48
2023/08/14 08:44:25;;;;;;;9.02;4.72;;;;;;;21.17;100.00;99521.66;5029107;28;20072;-50
2023/08/14 08:46:53;;;;;;;7.22;4.55;;;;;;;21.09;100.00;99505.56;5020795;28;20045;-51
2023/08/14 08:49:19;;;;;;;5.67;4.60;;;;;;;21.20;100.00;99534.63;5026217;28;20525;-46
2023/08/14 08:51:46;;;;;;;4.78;3.35;;;;;;;21.05;100.00;99528.72;5022490;28;20044;-47
2023/08/14 08:54:15;;;;;;;7.70;4.70;;;;;;;20.69;100.00;99498.16;5004496;28;20451;-47
2023/08/14 08:56:41;;;;;;;6.53;4.80;;;;;;;20.75;100.00;99517.13;5023742;28;20111;-49
2023/08/14 08:59:11;;;;;;;4.65;3.72;;;;;;;20.91;100.00;99534.28;5022759;28;20054;-49
2023/08/14 09:01:38;;;;;;;7.90;4.43;;;;;;;20.83;100.00;99539.31;5018827;28;20029;-49
2023/08/14 09:04:04;;;;;;;5.13;4.18;;;;;;;20.69;100.00;99521.09;5007883;28;20115;-48
2023/08/14 09:06:30;;;;;;;4.93;3.63;;;;;;;20.73;100.00;99544.50;5024659;28;20045;-47
2023/08/14 09:08:56;;;;;;;5.43;4.13;;;;;;;20.70;100.00;99551.81;5023345;28;20479;-49
2023/08/14 09:11:22;;;;;;;5.85;4.65;;;;;;;20.67;100.00;99552.91;5020093;28;20044;-47
2023/08/14 09:13:48;;;;;;;8.35;5.00;;;;;;;20.63;100.00;99530.31;5026726;28;20135;-48
2023/08/14 09:16:15;;;;;;;5.53;4.55;;;;;;;20.80;100.00;99568.66;5015759;28;20128;-49
2023/08/14 09:18:45;;;;;;;8.75;4.32;;;;;;;20.85;100.00;99566.47;5028045;28;20037;-52
2023/08/14 09:21:15;;;;;;;6.60;4.65;;;;;;;20.93;100.00;99571.19;5027610;28;20424;-50
2023/08/14 09:23:42;;;;;;;7.05;4.50;;;;;;;20.79;100.00;99543.16;5024427;28;20509;-47
2023/08/14 09:26:10;;;;;;;4.50;3.17;;;;;;;21.14;100.00;99569.50;5023031;28;20052;-47
2023/08/14 09:28:37;;;;;;;5.82;4.43;;;;;;;21.34;100.00;99578.50;5021381;28;20128;-47
2023/08/14 09:31:07;;;;;;;6.35;4.70;;;;;;;21.58;100.00;99583.59;4992784;28;20779;-49
2023/08/14 09:33:33;;;;;;;6.60;4.75;;;;;;;21.75;100.00;99581.25;5010070;28;20042;-53
2023/08/14 09:35:59;;;;;;;8.20;4.78;;;;;;;21.80;100.00;99581.72;5020686;28;20129;-49
2023/08/14 09:38:25;;;;;;;6.07;4.80;;;;;;;21.76;100.00;99590.88;5026002;28;20038;-50
2023/08/14 09:40:58;;;;;;;6.00;4.45;;;;;;;21.66;100.00;99555.56;5026967;28;20060;-51
2023/08/14 09:43:24;;;;;;;6.65;4.68;;;;;;;22.20;100.00;99584.56;5025199;28;20049;-52
2023/08/14 09:45:56;;;;;;;6.95;4.00;;;;;;;22.44;100.00;99588.78;5015346;28;20034;-50
2023/08/14 09:48:23;;;;;;;5.13;4.32;;;;;;;22.33;96.86;99592.34;5024151;28;20037;-50
2023/08/14 09:50:50;;;;;;;5.78;4.18;;;;;;;22.70;98.48;99593.53;5023950;28;20104;-50
2023/08/14 09:53:16;;;;;;;5.60;4.25;;;;;;;22.90;95.27;99594.50;5026912;28;20069;-48
2023/08/14 09:55:42;;;;;;;5.95;4.25;;;;;;;23.95;93.10;99595.75;5010703;28;20513;-48
2023/08/14 09:58:08;;;;;;;4.32;3.60;;;;;;;24.75;90.23;99598.06;4993562;28;20092;-49
2023/08/14 10:00:36;;;;;;;7.60;4.20;;;;;;;24.20;85.50;99600.53;5023141;28;20073;-51
2023/08/14 10:03:02;;;;;;;;;;;;;;;23.85;88.51;99600.22;5031452;28;20029;-48
2023/08/14 10:05:28;;;;;;;8.13;4.10;;;;;;;23.17;88.44;99578.00;5012620;28;19955;-48
2023/08/14 10:07:54;;;;;;;4.90;3.88;;;;;;;23.01;90.28;99598.88;5027903;28;20041;-50
2023/08/14 10:10:25;;;;;;;5.25;4.13;;;;;;;22.32;87.31;99580.06;5030865;28;20099;-49
2023/08/14 10:12:57;;;;;;;6.22;4.05;;;;;;;22.17;89.78;99595.44;5025951;28;20038;-50
2023/08/14 10:15:32;;;;;;;7.63;4.82;;;;;;;22.06;89.74;99602.59;5042727;28;20045;-50
2023/08/14 10:18:03;;;;;;;6.90;5.03;;;;;;;22.01;90.85;99580.94;4994300;28;20578;-52
2023/08/14 10:20:33;;;;;;;5.32;4.32;;;;;;;22.28;90.81;99608.63;5024126;28;20060;-51
2023/08/14 10:22:59;;;;;;;4.10;3.00;;;;;;;21.88;87.11;99568.69;5029347;28;20049;-53
2023/08/14 10:25:26;;;;;;;8.43;4.30;;;;;;;21.95;88.47;99617.56;5021122;28;20037;-49
2023/08/14 10:27:52;;;;;;;5.18;4.68;;;;;;;21.92;88.45;99620.44;5028116;28;20048;-51
2023/08/14 10:30:22;;;;;;;4.40;3.97;;;;;;;21.83;87.51;99580.63;5014786;28;20045;-50
2023/08/14 10:32:49;;;;;;;5.43;4.53;;;;;;;22.14;85.26;99614.22;4996462;28;20044;-51
2023/08/14 10:35:15;;;;;;;7.20;4.63;;;;;;;23.01;81.44;99591.75;5023055;28;20056;-50
2023/08/14 10:37:43;;;;;;;7.85;4.90;;;;;;;23.85;80.19;99606.38;5021935;28;20037;-51
2023/08/14 10:40:17;;;;;;;4.63;4.10;;;;;;;25.03;75.34;99613.09;5026267;28;20045;-51
2023/08/14 10:42:55;;;;;;;6.47;4.53;;;;;;;24.64;74.08;99616.84;5027843;28;20044;-52
2023/08/14 10:45:23;;;;;;;6.75;4.28;;;;;;;24.00;73.83;99617.41;5029388;28;20102;-49
2023/08/14 10:47:50;;;;;;;6.50;4.50;;;;;;;23.34;75.69;99624.28;5025607;28;20579;-50
2023/08/14 10:50:21;;;;;;;5.22;4.53;;;;;;;22.93;78.04;99626.03;5030336;28;20041;-49
2023/08/14 10:52:49;;;;;;;7.45;3.92;;;;;;;22.38;79.78;99627.22;5020928;28;20046;-51
2023/08/14 10:55:26;;;;;;;5.47;4.53;;;;;;;22.15;81.41;99634.44;5031621;28;20067;-51
2023/08/14 10:57:53;;;;;;;5.95;4.28;;;;;;;21.92;82.96;99624.88;5025434;28;20037;-46
2023/08/14 11:00:26;;;;;;;7.00;5.32;;;;;;;21.91;83.81;99631.13;5028219;28;20042;-49
2023/08/14 11:03:05;;;;;;;6.72;4.82;;;;;;;22.04;83.00;99630.97;5026606;28;20168;-51
2023/08/14 11:05:38;;;;;;;6.32;4.88;;;;;;;22.42;82.18;99626.00;5053069;28;20052;-50
2023/08/14 11:08:06;;;;;;;5.15;4.63;;;;;;;23.02;79.07;99625.28;5026433;28;20049;-49
2023/08/14 11:10:35;;;;;;;7.72;5.28;;;;;;;23.41;77.32;99620.09;5030712;28;20049;-45
2023/08/14 11:13:08;;;;;;;6.65;4.70;;;;;;;23.94;75.07;99634.75;5011041;28;20489;-51
2023/08/14 11:15:35;;;;;;;8.20;5.00;;;;;;;24.14;74.17;99632.09;5030723;28;20412;-51
2023/08/14 11:18:05;;;;;;;6.53;4.78;;;;;;;24.10;72.11;99628.03;5026728;28;20052;-52
2023/08/14 11:20:32;;;;;;;5.80;4.63;;;;;;;23.98;71.91;99630.00;5031349;28;20037;-48
2023/08/14 11:23:01;;;;;;;6.85;4.93;;;;;;;23.51;72.71;99636.91;5017877;28;20100;-52
2023/08/14 11:25:28;;;;;;;9.70;5.55;;;;;;;23.08;73.93;99616.75;5027733;28;20090;-54
2023/08/14 11:27:55;;;;;;;7.82;5.65;;;;;;;23.18;74.77;99635.38;5014833;28;20563;-48